Time;durP1;ratioP1;P1;durP2;ratioP2;P2;SDS_P1;SDS_P2;PMS_P1;PMS_P2;Temp;Humidity;BMP_temperature;BMP_pressure;BME280_temperature;BME280_humidity;BME280_pressure;Samples;Min_cycle;Max_cycle;Signal;HPM_P1;HPM_P2
2023/09/20 00:02:19;;;;;;;10.25;4.03;;;16.50;99.90;;;;;;7375946;19;20406;-59
2023/09/20 00:04:47;;;;;;;10.75;4.18;;;16.60;99.90;;;;;;7375528;19;20094;-60
2023/09/20 00:07:14;;;;;;;12.27;4.50;;;16.60;99.90;;;;;;7375408;19;20029;-60
2023/09/20 00:09:40;;;;;;;11.77;4.65;;;16.60;99.90;;;;;;7373966;19;20494;-59
2023/09/20 00:12:07;;;;;;;16.50;4.30;;;16.70;99.90;;;;;;7372340;19;20010;-60
2023/09/20 00:14:54;;;;;;;10.35;4.47;;;16.70;99.90;;;;;;7370848;19;20018;-59
2023/09/20 00:17:20;;;;;;;10.50;4.07;;;16.70;99.90;;;;;;7376886;19;20458;-60
2023/09/20 00:19:46;;;;;;;12.10;4.47;;;16.80;99.90;;;;;;7376494;19;20042;-60
2023/09/20 00:22:13;;;;;;;10.68;4.80;;;16.80;99.90;;;;;;7376328;19;20049;-60
2023/09/20 00:24:39;;;;;;;8.73;3.60;;;16.90;99.90;;;;;;7374260;19;20561;-68
2023/09/20 00:27:08;;;;;;;13.38;4.13;;;16.80;99.90;;;;;;7374701;19;20054;-59
2023/09/20 00:29:35;;;;;;;11.50;3.80;;;16.80;99.90;;;;;;7373215;19;20025;-59
2023/09/20 00:32:02;;;;;;;10.77;4.30;;;16.90;99.90;;;;;;7373489;19;20435;-59
2023/09/20 00:34:31;;;;;;;11.68;3.95;;;16.90;99.90;;;;;;7372887;19;20378;-59
2023/09/20 00:36:57;;;;;;;10.73;3.72;;;17.00;99.90;;;;;;7374138;19;20388;-59
2023/09/20 00:39:24;;;;;;;8.93;4.65;;;17.00;99.90;;;;;;7373664;19;20014;-60
2023/09/20 00:41:50;;;;;;;6.85;3.55;;;17.00;99.90;;;;;;7373869;19;20070;-60
2023/09/20 00:44:17;;;;;;;13.70;4.20;;;17.00;99.90;;;;;;7375296;19;20022;-60
2023/09/20 00:46:44;;;;;;;10.55;3.95;;;17.00;99.90;;;;;;7373431;19;20021;-60
2023/09/20 00:49:12;;;;;;;12.50;3.97;;;17.00;99.90;;;;;;7373644;19;20482;-60
2023/09/20 00:51:39;;;;;;;10.10;3.50;;;17.00;99.90;;;;;;7376539;19;20495;-67
2023/09/20 00:54:06;;;;;;;15.75;4.30;;;17.00;99.90;;;;;;7370395;19;20014;-59
2023/09/20 00:56:37;;;;;;;8.87;3.87;;;17.00;99.90;;;;;;7374025;19;20019;-59
2023/09/20 00:59:06;;;;;;;10.38;3.47;;;17.10;99.90;;;;;;7371008;19;20014;-60
2023/09/20 01:01:34;;;;;;;11.75;4.05;;;17.10;99.90;;;;;;7373297;19;20026;-62
2023/09/20 01:04:02;;;;;;;10.73;3.75;;;17.10;99.90;;;;;;7371061;19;20026;-60
2023/09/20 01:06:30;;;;;;;10.00;3.90;;;17.00;99.90;;;;;;7371749;19;20729;-59
2023/09/20 01:08:56;;;;;;;7.70;3.47;;;17.00;99.90;;;;;;7370766;19;20480;-59
2023/09/20 01:11:24;;;;;;;10.18;4.03;;;17.10;99.90;;;;;;7372107;19;20546;-59
2023/09/20 01:13:50;;;;;;;8.23;3.22;;;17.10;99.90;;;;;;7370582;19;20051;-59
2023/09/20 01:16:17;;;;;;;7.65;3.40;;;17.00;99.90;;;;;;7374769;19;20018;-59
2023/09/20 01:18:46;;;;;;;9.27;3.80;;;17.10;99.90;;;;;;7372079;19;20014;-68
2023/09/20 01:21:13;;;;;;;8.32;3.72;;;17.10;99.90;;;;;;7364608;19;20390;-59
2023/09/20 01:23:42;;;;;;;9.60;3.58;;;17.10;99.90;;;;;;7368155;19;20022;-60
2023/09/20 01:26:12;;;;;;;7.72;3.78;;;17.10;99.90;;;;;;7369122;19;20018;-60
2023/09/20 01:28:39;;;;;;;10.43;3.70;;;17.10;99.90;;;;;;7372349;19;20031;-60
2023/09/20 01:31:07;;;;;;;11.23;3.92;;;17.10;99.90;;;;;;7373002;19;20032;-60
2023/09/20 01:33:33;;;;;;;9.13;3.72;;;17.20;99.90;;;;;;7372446;19;20393;-60
2023/09/20 01:36:03;;;;;;;11.13;3.90;;;17.10;99.90;;;;;;7371246;19;20014;-60
2023/09/20 01:38:32;;;;;;;10.35;3.38;;;17.20;99.90;;;;;;7371614;19;20494;-59
2023/09/20 01:40:58;;;;;;;9.77;4.10;;;17.20;99.90;;;;;;7370111;19;20024;-59
2023/09/20 01:43:27;;;;;;;10.15;4.00;;;17.20;99.90;;;;;;7373642;19;20010;-59
2023/09/20 01:46:14;;;;;;;8.23;3.20;;;17.20;99.90;;;;;;7368364;19;20445;-68
2023/09/20 01:48:40;;;;;;;8.93;3.50;;;17.30;99.90;;;;;;7372745;19;20022;-68
2023/09/20 01:51:07;;;;;;;9.57;4.07;;;17.20;99.90;;;;;;7371435;19;20102;-68
2023/09/20 01:53:33;;;;;;;8.55;3.78;;;17.20;99.90;;;;;;7372108;19;20350;-68
2023/09/20 01:56:00;;;;;;;10.77;4.18;;;17.10;99.90;;;;;;7368423;19;20025;-68
2023/09/20 01:58:26;;;;;;;9.20;3.60;;;17.20;99.90;;;;;;7366764;19;20018;-69
2023/09/20 02:00:52;;;;;;;9.68;3.50;;;17.20;99.90;;;;;;7365614;19;20468;-68
2023/09/20 02:03:19;;;;;;;9.70;3.70;;;17.20;99.90;;;;;;7371996;19;20010;-68
2023/09/20 02:05:47;;;;;;;8.82;3.08;;;17.20;99.90;;;;;;7369116;19;20033;-68
2023/09/20 02:08:14;;;;;;;7.90;3.15;;;17.20;99.90;;;;;;7370528;19;20022;-68
2023/09/20 02:10:41;;;;;;;10.20;3.40;;;17.20;99.90;;;;;;7373476;19;20023;-68
2023/09/20 02:13:11;;;;;;;10.68;3.10;;;17.20;99.90;;;;;;7367828;19;20493;-68
2023/09/20 02:15:40;;;;;;;11.73;4.10;;;17.20;99.90;;;;;;7371260;19;20015;-68
2023/09/20 02:18:09;;;;;;;13.05;3.78;;;17.20;99.90;;;;;;7368676;19;20026;-69
2023/09/20 02:20:37;;;;;;;10.90;3.72;;;17.20;99.90;;;;;;7373152;19;20062;-69
2023/09/20 02:23:06;;;;;;;8.88;3.22;;;17.20;99.90;;;;;;7368283;19;20490;-69
2023/09/20 02:25:32;;;;;;;10.25;3.47;;;17.20;99.90;;;;;;7372023;19;20456;-69
2023/09/20 02:28:00;;;;;;;8.50;3.28;;;17.20;99.90;;;;;;7369684;19;20426;-60
2023/09/20 02:30:28;;;;;;;10.10;3.15;;;17.20;99.90;;;;;;7371646;19;20366;-60
2023/09/20 02:32:59;;;;;;;11.93;3.50;;;17.20;99.90;;;;;;7370059;19;20035;-60
2023/09/20 02:35:28;;;;;;;14.63;3.97;;;17.20;99.90;;;;;;7372350;19;20010;-59
2023/09/20 02:37:59;;;;;;;10.27;3.83;;;17.20;99.90;;;;;;7375943;19;20019;-61
2023/09/20 02:40:27;;;;;;;10.70;3.45;;;17.20;99.90;;;;;;7379322;19;20018;-59
2023/09/20 02:42:58;;;;;;;9.23;3.33;;;17.20;99.90;;;;;;7377846;19;20485;-59
2023/09/20 02:45:29;;;;;;;8.65;3.38;;;17.20;99.90;;;;;;7372291;19;20562;-59
2023/09/20 02:48:06;;;;;;;10.60;4.35;;;17.20;99.90;;;;;;7374625;19;20030;-68
2023/09/20 02:50:33;;;;;;;9.65;3.15;;;17.30;99.90;;;;;;7375265;19;20469;-59
2023/09/20 02:53:00;;;;;;;10.57;3.35;;;17.20;99.90;;;;;;7375991;19;20014;-68
2023/09/20 02:55:27;;;;;;;9.65;3.58;;;17.20;99.90;;;;;;7378083;19;20015;-71
2023/09/20 02:57:54;;;;;;;10.77;3.35;;;17.20;99.90;;;;;;7375085;19;20026;-68
2023/09/20 03:00:26;;;;;;;8.73;3.53;;;17.20;99.90;;;;;;7377832;19;20477;-59
2023/09/20 03:02:56;;;;;;;10.75;3.42;;;17.20;99.90;;;;;;7377406;19;20379;-69
2023/09/20 03:05:31;;;;;;;10.52;3.78;;;17.20;99.90;;;;;;7375503;19;20018;-69
2023/09/20 03:07:57;;;;;;;12.10;3.67;;;17.20;99.90;;;;;;7377475;19;20046;-69
2023/09/20 03:10:25;;;;;;;11.15;4.05;;;17.10;99.90;;;;;;7377894;19;20578;-69
2023/09/20 03:12:57;;;;;;;16.35;4.35;;;17.20;99.90;;;;;;7375063;19;20035;-60
2023/09/20 03:15:27;;;;;;;10.45;3.78;;;17.20;99.90;;;;;;7376945;19;20023;-59
2023/09/20 03:18:00;;;;;;;11.80;4.03;;;17.20;99.90;;;;;;7375835;19;20098;-60
2023/09/20 03:20:27;;;;;;;14.48;4.75;;;17.20;99.90;;;;;;7377687;19;20019;-61
2023/09/20 03:23:05;;;;;;;11.55;3.90;;;17.20;99.90;;;;;;7377925;19;20505;-60
2023/09/20 03:25:36;;;;;;;10.15;3.90;;;17.20;99.90;;;;;;7375579;19;20074;-60
2023/09/20 03:28:08;;;;;;;;;;;17.20;99.90;;;;;;7374686;19;20022;-69
2023/09/20 03:30:38;;;;;;;10.25;3.88;;;17.10;99.90;;;;;;7373687;19;20808;-69
2023/09/20 03:33:07;;;;;;;9.13;3.65;;;17.10;99.90;;;;;;7376489;19;20512;-69
2023/09/20 03:35:34;;;;;;;11.07;4.20;;;17.00;99.90;;;;;;7377054;19;20081;-60
2023/09/20 03:38:02;;;;;;;7.80;3.33;;;17.00;99.90;;;;;;7374912;19;20026;-59
2023/09/20 03:40:32;;;;;;;9.55;3.35;;;16.90;99.90;;;;;;7373117;19;20481;-59
2023/09/20 03:43:03;;;;;;;12.35;5.05;;;16.80;99.90;;;;;;7376203;19;20098;-67
2023/09/20 03:45:30;;;;;;;9.38;3.95;;;16.80;99.90;;;;;;7373337;19;20014;-59
2023/09/20 03:47:57;;;;;;;10.93;4.07;;;16.70;99.90;;;;;;7373358;19;20096;-69
2023/09/20 03:50:24;;;;;;;10.05;3.53;;;16.70;99.90;;;;;;7372644;19;20110;-68
2023/09/20 03:52:52;;;;;;;10.13;4.25;;;16.60;99.90;;;;;;7376421;19;20025;-60
2023/09/20 03:55:19;;;;;;;7.30;3.78;;;16.60;99.90;;;;;;7373797;19;20372;-60
2023/09/20 03:57:48;;;;;;;9.63;4.10;;;16.60;99.90;;;;;;7375642;19;20518;-70
2023/09/20 04:00:17;;;;;;;10.25;3.88;;;16.60;99.90;;;;;;7375470;19;20034;-61
2023/09/20 04:02:45;;;;;;;10.88;4.05;;;16.60;99.90;;;;;;7374394;19;20018;-69
2023/09/20 04:05:15;;;;;;;11.50;4.20;;;16.50;99.90;;;;;;7374001;19;20022;-60
2023/09/20 04:08:06;;;;;;;10.52;4.00;;;16.40;99.90;;;;;;7374479;19;20490;-59
2023/09/20 04:10:33;;;;;;;12.52;4.35;;;16.40;99.90;;;;;;7373668;19;20054;-60
2023/09/20 04:13:03;;;;;;;11.00;3.53;;;16.30;99.90;;;;;;7372505;19;20665;-69
2023/09/20 04:15:30;;;;;;;16.05;4.50;;;16.20;99.90;;;;;;7374191;19;20015;-68
2023/09/20 04:17:57;;;;;;;13.52;5.10;;;16.10;99.90;;;;;;7376865;19;20031;-68
2023/09/20 04:20:23;;;;;;;9.55;4.38;;;16.00;99.90;;;;;;7376200;19;20025;-69
2023/09/20 04:22:50;;;;;;;10.77;3.92;;;15.90;99.90;;;;;;7376049;19;20058;-70
2023/09/20 04:25:16;;;;;;;10.65;4.25;;;15.90;99.90;;;;;;7374912;19;20561;-69
2023/09/20 04:27:43;;;;;;;11.10;4.43;;;15.90;99.90;;;;;;7374423;19;20438;-69
2023/09/20 04:30:13;;;;;;;8.55;3.95;;;15.80;99.90;;;;;;7372954;19;20449;-60
2023/09/20 04:33:03;;;;;;;10.07;4.03;;;15.80;99.90;;;;;;7376122;19;20037;-60
2023/09/20 04:35:38;;;;;;;12.00;4.18;;;15.70;99.90;;;;;;7377022;19;20029;-60
2023/09/20 04:38:08;;;;;;;9.88;3.88;;;15.70;99.90;;;;;;7371335;19;20022;-60
2023/09/20 04:40:56;;;;;;;8.80;3.67;;;15.70;99.90;;;;;;7373638;19;20023;-60
2023/09/20 04:43:23;;;;;;;14.38;3.97;;;15.60;99.90;;;;;;7375020;19;20473;-59
2023/09/20 04:45:50;;;;;;;13.07;4.32;;;15.60;99.90;;;;;;7371838;19;20018;-59
2023/09/20 04:48:16;;;;;;;8.57;3.72;;;15.50;99.90;;;;;;7372980;19;20033;-60
2023/09/20 04:50:43;;;;;;;11.05;4.22;;;15.40;99.90;;;;;;7373589;19;20014;-60
2023/09/20 04:53:09;;;;;;;11.80;3.97;;;15.40;99.90;;;;;;7372587;19;20018;-60
2023/09/20 04:55:36;;;;;;;10.25;4.22;;;15.40;99.90;;;;;;7376069;19;20010;-60
2023/09/20 04:58:02;;;;;;;10.10;3.95;;;15.30;99.90;;;;;;7368526;19;20022;-60
2023/09/20 05:00:37;;;;;;;10.43;4.10;;;15.30;99.90;;;;;;7375814;19;20378;-69
2023/09/20 05:03:04;;;;;;;12.63;4.72;;;15.20;99.90;;;;;;7369404;19;20049;-68
2023/09/20 05:05:30;;;;;;;10.43;4.45;;;15.20;99.90;;;;;;7368800;19;20019;-71
2023/09/20 05:07:57;;;;;;;9.30;4.05;;;15.20;99.90;;;;;;7365527;19;20019;-70
2023/09/20 05:10:23;;;;;;;9.20;4.32;;;15.10;99.90;;;;;;7370865;19;20025;-69
2023/09/20 05:12:50;;;;;;;10.25;4.47;;;15.10;99.90;;;;;;7370784;19;20022;-69
2023/09/20 05:15:17;;;;;;;14.32;6.53;;;15.10;99.90;;;;;;7369246;19;20018;-69
2023/09/20 05:17:44;;;;;;;13.02;4.45;;;15.00;99.90;;;;;;7372229;19;20513;-68
2023/09/20 05:20:14;;;;;;;7.93;4.50;;;15.00;99.90;;;;;;7370434;19;20014;-69
2023/09/20 05:22:41;;;;;;;10.23;5.20;;;15.10;99.90;;;;;;7374514;19;20100;-69
2023/09/20 05:25:08;;;;;;;11.82;4.72;;;15.10;99.90;;;;;;7371564;19;20588;-60
2023/09/20 05:27:35;;;;;;;11.50;4.65;;;15.00;99.90;;;;;;7370680;19;20047;-60
2023/09/20 05:30:01;;;;;;;7.95;4.22;;;15.00;99.90;;;;;;7371119;19;20015;-60
2023/09/20 05:32:28;;;;;;;9.65;4.60;;;15.00;99.90;;;;;;7374501;19;20014;-60
2023/09/20 05:34:55;;;;;;;8.95;4.20;;;15.10;99.90;;;;;;7372468;19;20101;-60
2023/09/20 05:37:22;;;;;;;12.60;4.07;;;15.10;99.90;;;;;;7371904;19;20101;-60
2023/09/20 05:40:18;;;;;;;13.85;5.63;;;15.10;99.90;;;;;;7373402;19;20018;-58
2023/09/20 05:42:46;;;;;;;8.13;3.75;;;15.10;99.90;;;;;;7372772;19;20445;-69
2023/09/20 05:45:13;;;;;;;10.85;3.97;;;15.10;99.90;;;;;;7372873;19;20014;-68
2023/09/20 05:47:40;;;;;;;8.55;3.78;;;15.20;99.90;;;;;;7374582;19;20030;-69
2023/09/20 05:50:10;;;;;;;13.50;4.15;;;15.20;99.90;;;;;;7371714;19;20513;-69
2023/09/20 05:52:42;;;;;;;9.20;4.25;;;15.30;99.90;;;;;;7373219;19;20015;-69
2023/09/20 05:55:11;;;;;;;;;;;15.30;99.90;;;;;;7373788;19;20034;-69
2023/09/20 05:57:38;;;;;;;9.65;5.50;;;15.40;99.90;;;;;;7370301;19;20314;-69
2023/09/20 06:00:18;;;;;;;8.93;3.70;;;15.50;99.90;;;;;;7372128;19;20358;-69
2023/09/20 06:02:45;;;;;;;8.60;3.65;;;15.50;99.90;;;;;;7376597;19;20039;-57
2023/09/20 06:05:11;;;;;;;11.40;3.83;;;15.60;99.90;;;;;;7370961;19;20019;-67
2023/09/20 06:07:40;;;;;;;7.40;3.10;;;15.70;99.90;;;;;;7374520;19;20022;-65
2023/09/20 06:10:09;;;;;;;10.45;4.10;;;15.70;99.90;;;;;;7374468;19;20026;-67
2023/09/20 06:12:36;;;;;;;12.80;5.18;;;15.80;99.90;;;;;;7380736;19;20022;-68
2023/09/20 06:15:22;;;;;;;7.28;3.72;;;15.80;99.90;;;;;;7386402;19;20018;-67
2023/09/20 06:17:48;;;;;;;9.27;3.15;;;15.90;99.90;;;;;;7387155;19;20027;-67
2023/09/20 06:20:24;;;;;;;8.93;3.72;;;16.00;99.90;;;;;;7385907;19;20010;-67
2023/09/20 06:22:52;;;;;;;10.55;3.50;;;16.00;99.90;;;;;;7379606;19;20014;-58
2023/09/20 06:25:39;;;;;;;10.13;3.78;;;16.10;99.90;;;;;;7380233;19;20358;-58
2023/09/20 06:28:05;;;;;;;12.23;4.90;;;16.10;99.90;;;;;;7385990;19;20018;-58
2023/09/20 06:30:31;;;;;;;8.27;3.22;;;16.10;99.90;;;;;;7382488;19;20026;-58
2023/09/20 06:32:58;;;;;;;12.43;6.60;;;16.20;99.90;;;;;;7386613;19;20819;-57
2023/09/20 06:35:26;;;;;;;8.07;3.40;;;16.30;99.90;;;;;;7386594;19;20521;-60
2023/09/20 06:37:53;;;;;;;8.60;3.47;;;16.50;99.90;;;;;;7382079;19;20078;-60
2023/09/20 06:40:22;;;;;;;8.85;3.33;;;16.60;99.90;;;;;;7385456;19;20814;-68
2023/09/20 06:42:52;;;;;;;9.13;4.20;;;16.70;99.90;;;;;;7384180;19;20086;-59
2023/09/20 06:45:20;;;;;;;10.48;3.47;;;16.70;99.90;;;;;;7379428;19;20607;-59
2023/09/20 06:47:46;;;;;;;10.48;3.50;;;16.80;99.90;;;;;;7383936;19;20015;-58
2023/09/20 06:50:13;;;;;;;9.10;3.50;;;17.00;99.90;;;;;;7383827;19;20085;-58
2023/09/20 06:52:42;;;;;;;7.45;3.40;;;17.30;99.90;;;;;;7384502;19;20495;-59
2023/09/20 06:55:11;;;;;;;10.82;3.78;;;17.50;99.90;;;;;;7385381;19;20640;-57
2023/09/20 06:57:38;;;;;;;7.68;4.70;;;17.50;99.90;;;;;;7386449;19;20018;-58
2023/09/20 07:00:05;;;;;;;9.27;3.45;;;17.60;99.90;;;;;;7380625;19;20351;-58
2023/09/20 07:02:32;;;;;;;9.13;3.22;;;17.90;99.90;;;;;;7382133;19;20026;-59
2023/09/20 07:04:58;;;;;;;11.10;5.93;;;18.10;99.90;;;;;;7381753;19;20025;-58
2023/09/20 07:07:25;;;;;;;10.55;4.05;;;18.20;99.90;;;;;;7383351;19;20525;-58
2023/09/20 07:09:51;;;;;;;8.95;3.92;;;18.30;99.90;;;;;;7381500;19;20022;-58
2023/09/20 07:12:17;;;;;;;10.18;5.00;;;18.70;99.90;;;;;;7383494;19;20070;-59
2023/09/20 07:14:44;;;;;;;6.63;3.20;;;18.90;99.90;;;;;;7380432;19;20081;-59
2023/09/20 07:17:10;;;;;;;8.00;3.60;;;19.10;99.90;;;;;;7381979;19;20760;-59
2023/09/20 07:19:36;;;;;;;9.07;4.55;;;19.20;99.90;;;;;;7381390;19;20075;-68
2023/09/20 07:22:05;;;;;;;6.05;2.95;;;19.40;99.90;;;;;;7379963;19;20413;-67
2023/09/20 07:24:33;;;;;;;8.23;3.15;;;19.60;99.90;;;;;;7375898;19;20018;-60
2023/09/20 07:27:01;;;;;;;5.68;2.97;;;19.60;99.90;;;;;;7378376;19;20019;-59
2023/09/20 07:29:27;;;;;;;10.35;3.50;;;19.50;99.90;;;;;;7371574;19;20014;-60
2023/09/20 07:31:54;;;;;;;9.02;2.83;;;19.50;99.90;;;;;;7374679;19;20014;-59
2023/09/20 07:34:23;;;;;;;7.07;3.08;;;19.60;99.90;;;;;;7370358;19;20389;-59
2023/09/20 07:36:53;;;;;;;8.05;3.00;;;20.00;99.90;;;;;;7375287;19;20022;-59
2023/09/20 07:39:21;;;;;;;7.32;3.08;;;20.60;99.90;;;;;;7378101;19;20037;-59
2023/09/20 07:42:07;;;;;;;7.93;3.08;;;21.00;99.90;;;;;;7380550;19;20548;-67
2023/09/20 07:44:35;;;;;;;5.90;2.97;;;21.70;99.90;;;;;;7376176;19;20019;-60
2023/09/20 07:47:03;;;;;;;7.75;3.45;;;22.30;99.90;;;;;;7373264;19;20030;-60
2023/09/20 07:49:30;;;;;;;6.30;2.92;;;22.20;99.90;;;;;;7376024;19;20029;-68
2023/09/20 07:52:16;;;;;;;6.75;3.40;;;22.20;99.90;;;;;;7378145;19;20018;-59
2023/09/20 07:54:42;;;;;;;6.93;2.63;;;21.80;99.90;;;;;;7374354;19;20019;-67
2023/09/20 07:57:10;;;;;;;9.15;3.70;;;21.10;99.90;;;;;;7374900;19;20461;-66
2023/09/20 07:59:36;;;;;;;6.45;2.95;;;20.60;99.90;;;;;;7374743;19;20102;-66
2023/09/20 08:02:03;;;;;;;14.15;3.20;;;20.50;99.90;;;;;;7366171;19;20022;-66
2023/09/20 08:04:37;;;;;;;8.00;2.83;;;20.30;99.90;;;;;;7375663;19;20014;-59
2023/09/20 08:07:04;;;;;;;8.05;3.45;;;20.20;99.90;;;;;;7374372;19;20014;-59
2023/09/20 08:09:30;;;;;;;9.25;3.17;;;19.90;99.90;;;;;;7371367;19;20777;-66
2023/09/20 08:11:56;;;;;;;6.68;2.83;;;19.80;99.90;;;;;;7373837;19;20026;-66
2023/09/20 08:14:22;;;;;;;6.78;3.20;;;19.60;99.90;;;;;;7374497;19;20585;-59
2023/09/20 08:19:36;;;;;;;8.65;3.50;;;19.40;99.90;;;;;;7373578;19;20137;-58
2023/09/20 08:22:03;;;;;;;8.10;3.50;;;19.20;99.90;;;;;;7356680;19;20502;-59
2023/09/20 09:00:46;;;;;;;7.38;3.13;;;18.80;99.90;;;;;;7367411;19;20014;-60
2023/09/20 09:03:15;;;;;;;7.43;3.08;;;18.90;99.90;;;;;;7368463;19;20027;-61
2023/09/20 09:05:41;;;;;;;6.50;2.53;;;18.80;99.90;;;;;;7367841;19;20010;-58
2023/09/20 09:08:08;;;;;;;8.20;2.78;;;18.80;99.90;;;;;;7372389;19;20042;-59
2023/09/20 09:10:34;;;;;;;5.35;2.80;;;18.70;99.90;;;;;;7364217;19;20396;-58
2023/09/20 09:13:00;;;;;;;7.45;3.00;;;18.60;99.90;;;;;;7370213;19;20022;-68
2023/09/20 09:15:28;;;;;;;10.00;2.83;;;18.60;99.90;;;;;;7369854;19;20037;-68
2023/09/20 09:17:54;;;;;;;6.15;2.78;;;18.60;99.90;;;;;;7369018;19;20018;-68
2023/09/20 09:20:21;;;;;;;7.25;3.15;;;18.60;99.90;;;;;;7367814;19;20022;-68
2023/09/20 09:22:49;;;;;;;6.50;2.72;;;18.60;99.90;;;;;;7369259;19;20492;-67
2023/09/20 09:25:18;;;;;;;6.68;2.70;;;18.80;99.90;;;;;;7370766;19;20565;-68
2023/09/20 09:27:44;;;;;;;6.18;3.00;;;18.80;99.90;;;;;;7370465;19;20094;-66
2023/09/20 09:30:12;;;;;;;6.65;2.67;;;18.90;99.90;;;;;;7369380;19;20082;-69
2023/09/20 09:32:40;;;;;;;6.78;3.25;;;18.90;99.90;;;;;;7375802;19;20023;-68
2023/09/20 09:35:07;;;;;;;7.07;2.67;;;19.00;99.90;;;;;;7370001;19;20023;-68
2023/09/20 09:37:35;;;;;;;5.90;2.70;;;19.00;99.90;;;;;;7370167;19;20035;-68
2023/09/20 09:40:04;;;;;;;11.23;3.42;;;19.10;99.90;;;;;;7366055;19;20018;-69
2023/09/20 09:42:31;;;;;;;8.18;3.22;;;19.10;99.90;;;;;;7370580;19;20279;-69
2023/09/20 09:44:58;;;;;;;6.38;2.80;;;19.20;99.90;;;;;;7368617;19;20090;-69
2023/09/20 09:47:29;;;;;;;5.53;2.60;;;19.40;99.90;;;;;;7371040;19;20496;-67
2023/09/20 09:49:58;;;;;;;7.60;3.08;;;19.40;99.90;;;;;;7370190;19;20553;-68
2023/09/20 09:52:26;;;;;;;6.43;3.00;;;19.60;99.90;;;;;;7372061;19;20023;-68
2023/09/20 09:54:53;;;;;;;6.95;2.83;;;19.60;99.90;;;;;;7369322;19;20019;-66
2023/09/20 09:57:19;;;;;;;5.65;2.40;;;19.60;99.90;;;;;;7370956;19;20022;-67
2023/09/20 09:59:47;;;;;;;6.90;2.70;;;19.60;99.90;;;;;;7369421;19;20022;-67
2023/09/20 10:02:21;;;;;;;9.75;2.90;;;19.50;99.90;;;;;;7372369;19;20044;-67
2023/09/20 10:04:58;;;;;;;6.47;2.45;;;19.50;99.90;;;;;;7367538;19;20025;-67
2023/09/20 10:07:40;;;;;;;6.15;2.30;;;19.60;99.90;;;;;;7371359;19;20032;-67
2023/09/20 10:10:13;;;;;;;7.38;3.65;;;19.70;99.90;;;;;;7368221;19;20018;-67
2023/09/20 10:13:03;;;;;;;8.40;3.17;;;19.70;99.90;;;;;;7368589;19;20022;-67
2023/09/20 10:15:32;;;;;;;5.07;2.42;;;19.60;99.90;;;;;;7369279;19;20018;-68
2023/09/20 10:17:59;;;;;;;7.13;2.67;;;19.60;99.90;;;;;;7372967;19;20026;-68
2023/09/20 10:21:04;;;;;;;6.63;2.97;;;19.60;99.90;;;;;;7368098;19;20383;-68
2023/09/20 10:23:34;;;;;;;4.47;3.10;;;19.70;99.90;;;;;;7367838;19;20423;-68
2023/09/20 10:26:01;;;;;;;6.43;2.78;;;19.70;99.90;;;;;;7363325;19;20502;-67
2023/09/20 10:28:35;;;;;;;3.83;2.20;;;19.70;99.90;;;;;;7372304;19;20015;-68
2023/09/20 10:31:01;;;;;;;5.78;2.20;;;19.70;99.90;;;;;;7365393;19;20026;-67
2023/09/20 10:33:45;;;;;;;13.55;2.90;;;19.70;99.90;;;;;;7372203;19;20355;-68
2023/09/20 10:36:21;;;;;;;5.18;2.30;;;19.70;99.90;;;;;;7366075;19;20109;-67
2023/09/20 10:38:48;;;;;;;4.68;2.03;;;19.70;99.90;;;;;;7373199;19;20412;-66
2023/09/20 10:41:16;;;;;;;7.70;2.50;;;19.60;99.90;;;;;;7367527;19;20018;-68
2023/09/20 10:43:46;;;;;;;4.82;2.15;;;19.60;99.90;;;;;;7370462;19;20492;-67
2023/09/20 10:46:20;;;;;;;4.07;1.83;;;19.60;99.90;;;;;;7365755;19;20011;-66
2023/09/20 10:48:49;;;;;;;8.60;2.97;;;19.90;99.90;;;;;;7367530;19;20018;-67
2023/09/20 10:51:40;;;;;;;4.40;2.13;;;19.90;99.90;;;;;;7364754;19;20444;-68
2023/09/20 10:54:25;;;;;;;;;;;20.00;99.90;;;;;;7371793;19;20022;-68
2023/09/20 10:56:52;;;;;;;5.53;2.20;;;20.00;99.90;;;;;;7373605;19;20389;-68
2023/09/20 10:59:25;;;;;;;33.05;29.52;;;20.00;99.90;;;;;;7376727;19;20450;-61
2023/09/20 11:02:04;;;;;;;18.02;15.93;;;20.20;99.90;;;;;;7378048;19;20097;-63
2023/09/20 11:04:30;;;;;;;20.50;18.20;;;20.20;99.90;;;;;;7381285;19;20023;-62
2023/09/20 11:07:02;;;;;;;5.20;2.40;;;20.00;99.90;;;;;;7376570;19;20484;-67
2023/09/20 11:09:38;;;;;;;6.95;2.67;;;20.00;99.90;;;;;;7377413;19;20581;-65
2023/09/20 11:12:08;;;;;;;4.90;2.40;;;19.90;99.90;;;;;;7377881;19;20022;-68
2023/09/20 11:14:39;;;;;;;4.05;2.25;;;20.00;99.90;;;;;;7377162;19;20022;-67
2023/09/20 11:17:05;;;;;;;6.97;2.70;;;20.10;99.90;;;;;;7386694;19;20374;-67
2023/09/20 11:19:33;;;;;;;4.00;1.90;;;20.40;99.90;;;;;;7382922;19;20018;-64
2023/09/20 11:22:00;;;;;;;7.32;2.50;;;20.70;99.90;;;;;;7375155;19;20014;-64
2023/09/20 11:24:26;;;;;;;6.53;3.80;;;20.80;99.90;;;;;;7377210;19;20026;-66
2023/09/20 11:26:56;;;;;;;5.38;2.72;;;20.70;99.90;;;;;;7380010;19;20031;-64
2023/09/20 11:29:25;;;;;;;5.90;2.28;;;20.50;99.90;;;;;;7373574;19;20411;-64
2023/09/20 11:31:56;;;;;;;6.70;4.38;;;20.40;99.90;;;;;;7376927;19;20395;-66
2023/09/20 11:34:23;;;;;;;9.68;4.20;;;20.40;99.90;;;;;;7377971;19;20017;-68
2023/09/20 11:36:53;;;;;;;11.77;5.65;;;20.30;99.90;;;;;;7384135;19;20067;-67
2023/09/20 11:39:30;;;;;;;7.65;4.50;;;20.40;99.90;;;;;;7378285;19;20366;-63
2023/09/20 11:42:04;;;;;;;19.58;7.55;;;20.60;99.90;;;;;;7375176;19;20022;-62
2023/09/20 11:44:37;;;;;;;9.88;6.43;;;20.70;99.90;;;;;;7384755;19;20021;-64
2023/09/20 11:47:04;;;;;;;10.05;4.50;;;20.80;99.90;;;;;;7383167;19;20114;-64
2023/09/20 11:49:33;;;;;;;5.68;3.03;;;21.10;99.90;;;;;;7373522;19;20029;-65
2023/09/20 11:52:01;;;;;;;7.10;4.53;;;21.90;99.90;;;;;;7384954;19;20498;-65
2023/09/20 11:54:34;;;;;;;7.43;3.63;;;22.80;99.90;;;;;;7377995;19;20018;-66
2023/09/20 11:57:03;;;;;;;11.88;5.82;;;23.20;99.90;;;;;;7380319;19;20011;-65
2023/09/20 11:59:39;;;;;;;6.60;3.47;;;23.30;99.90;;;;;;7381660;19;20018;-66
2023/09/20 12:02:07;;;;;;;6.45;3.28;;;23.20;99.90;;;;;;7375638;19;20034;-64
2023/09/20 12:04:33;;;;;;;39.95;35.75;;;23.20;99.90;;;;;;7371064;19;20014;-66
2023/09/20 12:07:02;;;;;;;6.38;2.75;;;23.10;99.90;;;;;;7384048;19;20021;-67
2023/09/20 12:09:28;;;;;;;5.68;3.00;;;22.90;99.90;;;;;;7384531;19;20477;-65
2023/09/20 12:11:58;;;;;;;10.40;8.70;;;22.80;99.90;;;;;;7397042;19;20018;-70
2023/09/20 12:14:26;;;;;;;6.03;2.97;;;23.00;99.90;;;;;;7397532;19;20007;-67
2023/09/20 12:16:55;;;;;;;10.95;5.05;;;23.00;99.90;;;;;;7390780;19;20026;-66
2023/09/20 12:19:33;;;;;;;8.48;4.63;;;23.10;99.90;;;;;;7391665;19;20014;-65
2023/09/20 12:22:04;;;;;;;8.05;5.85;;;23.40;99.90;;;;;;7396816;19;20018;-65
2023/09/20 12:24:30;;;;;;;;;;;23.30;99.90;;;;;;7377317;19;20016;-62
2023/09/20 12:26:57;;;;;;;7.88;4.00;;;23.20;99.90;;;;;;7366148;19;20353;-61
2023/09/20 12:29:23;;;;;;;10.20;5.85;;;23.10;99.90;;;;;;7370452;19;20018;-62
2023/09/20 12:31:50;;;;;;;9.10;4.47;;;22.90;99.90;;;;;;7372979;19;20010;-61
2023/09/20 12:34:16;;;;;;;7.05;3.10;;;23.10;99.90;;;;;;7373520;19;20022;-64
2023/09/20 12:36:46;;;;;;;13.38;8.43;;;23.10;99.90;;;;;;7376048;19;20022;-68
2023/09/20 12:39:12;;;;;;;12.38;7.80;;;23.20;99.90;;;;;;7360865;19;20018;-65
2023/09/20 12:41:40;;;;;;;9.50;6.00;;;23.20;99.90;;;;;;7394301;19;20015;-66
2023/09/20 12:44:07;;;;;;;11.90;9.48;;;23.20;99.90;;;;;;7394564;19;20569;-65
2023/09/20 12:46:44;;;;;;;6.30;4.00;;;23.40;99.90;;;;;;7395212;19;20118;-64
2023/09/20 12:49:10;;;;;;;12.10;8.02;;;23.40;99.90;;;;;;7369150;19;20037;-65
2023/09/20 12:51:37;;;;;;;9.18;5.80;;;23.40;99.90;;;;;;7360332;19;20071;-65
2023/09/20 12:54:05;;;;;;;9.45;3.63;;;23.10;99.90;;;;;;7356498;19;20045;-62
2023/09/20 12:56:31;;;;;;;10.20;6.03;;;23.40;99.90;;;;;;7359873;19;20039;-65
2023/09/20 12:59:00;;;;;;;11.18;5.88;;;23.40;99.90;;;;;;7384158;19;20010;-64
2023/09/20 13:01:33;;;;;;;12.77;9.38;;;23.80;99.90;;;;;;7398589;19;20011;-65
2023/09/20 13:04:02;;;;;;;24.75;21.95;;;24.00;99.90;;;;;;7367523;19;20097;-65
2023/09/20 13:06:28;;;;;;;5.93;4.10;;;23.80;99.90;;;;;;7366911;19;20366;-65
2023/09/20 13:08:58;;;;;;;6.85;3.40;;;23.60;99.90;;;;;;7370282;19;20086;-64
2023/09/20 13:11:24;;;;;;;15.52;11.63;;;23.50;99.90;;;;;;7369675;19;20484;-59
2023/09/20 13:13:50;;;;;;;9.55;4.22;;;23.90;99.90;;;;;;7370512;19;20026;-60
2023/09/20 13:16:17;;;;;;;8.65;2.90;;;24.70;99.90;;;;;;7370327;19;20029;-66
2023/09/20 13:18:44;;;;;;;7.07;4.63;;;25.40;99.90;;;;;;7380761;19;20010;-63
2023/09/20 13:21:10;;;;;;;5.70;2.78;;;25.10;99.90;;;;;;7382761;19;20750;-60
2023/09/20 13:23:36;;;;;;;4.63;2.83;;;24.80;99.90;;;;;;7377013;19;20438;-60
2023/09/20 13:26:05;;;;;;;7.32;2.78;;;24.80;99.90;;;;;;7377182;19;20023;-63
2023/09/20 13:28:32;;;;;;;7.88;3.38;;;24.90;99.90;;;;;;7379382;19;20474;-64
2023/09/20 13:30:59;;;;;;;6.18;3.17;;;25.60;99.90;;;;;;7372898;19;20082;-60
2023/09/20 13:33:26;;;;;;;6.20;3.17;;;25.70;99.90;;;;;;7377170;19;20379;-60